Terminal Aerodrome Forecast
Issued by NWS

Home | Current Version | Previous Version | Text Only | Print | Product List | Glossary On
Versions: 1 2 3 4 5 6 7 8 9 10 11 12 13 14 15 16 17 18 19 20 21 22
000
FTUS41 KCLE 221700
TAFFDY
TAF
KFDY 221731Z 2218/2318 13008KT 6SM HZ BKN045
     FM230500 13012KT 5SM BR VCSH SCT015 OVC025
      TEMPO 2308/2312 2SM -SHRA SCT008 OVC012
     FM231200 17010G18KT 3SM -DZ BR SCT003 OVC008=

USA.gov is the U.S. government's official web portal to all federal, state and local government web resources and services.